createdAt,value
2019-01-04T00:00:17.273Z,-0.36
2019-01-04T00:02:45.668Z,-0.37
2019-01-04T00:08:07.860Z,-0.40
2019-01-04T00:10:36.280Z,-0.36
2019-01-04T00:13:23.879Z,-0.39
2019-01-04T00:15:52.340Z,-0.40
2019-01-04T00:18:20.814Z,-0.40
2019-01-04T00:20:49.204Z,-0.40
2019-01-04T00:25:51.956Z,-0.40
2019-01-04T00:28:20.385Z,-0.38
2019-01-04T00:30:48.780Z,-0.35
2019-01-04T00:33:36.436Z,-0.32
2019-01-04T00:36:24.216Z,-0.30
2019-01-04T00:38:52.678Z,-0.34
2019-01-04T00:41:23.665Z,-0.37
2019-01-04T00:43:52.195Z,-0.38
2019-01-04T00:48:54.932Z,-0.40
2019-01-04T00:54:17.304Z,-0.43
2019-01-04T00:57:24.452Z,-0.43
2019-01-04T01:00:32.802Z,-0.44
2019-01-04T01:03:41.387Z,-0.47
2019-01-04T01:06:48.378Z,-0.47
2019-01-04T01:09:55.515Z,-0.49
2019-01-04T01:13:02.507Z,-0.47
2019-01-04T01:16:09.626Z,-0.49
2019-01-04T01:19:16.615Z,-0.49
2019-01-04T01:22:24.956Z,-0.49
2019-01-04T01:25:31.937Z,-0.51
2019-01-04T01:28:40.477Z,-0.52
2019-01-04T01:31:48.866Z,-0.54
2019-01-04T01:34:57.218Z,-0.57
2019-01-04T01:38:04.207Z,-0.60
2019-01-04T01:41:11.287Z,-0.57
2019-01-04T01:44:19.660Z,-0.55
2019-01-04T01:47:28.017Z,-0.56
2019-01-04T01:50:35.004Z,-0.56
2019-01-04T01:55:37.353Z,-0.58
2019-01-04T01:58:05.804Z,-0.60
2019-01-04T02:00:34.332Z,-0.58
2019-01-04T02:03:02.728Z,-0.54
2019-01-04T02:08:05.404Z,-0.55
2019-01-04T02:13:07.472Z,-0.53
2019-01-04T02:20:48.692Z,-0.49
2019-01-04T02:23:17.086Z,-0.48
2019-01-04T02:28:19.722Z,-0.52
2019-01-04T02:31:28.140Z,-0.53
2019-01-04T02:34:17.627Z,-0.53
2019-01-04T02:39:19.688Z,-0.54
2019-01-04T02:41:48.148Z,-0.55
2019-01-04T02:46:50.342Z,-0.56
2019-01-04T02:49:18.772Z,-0.55
2019-01-04T02:51:47.169Z,-0.56
2019-01-04T02:54:15.566Z,-0.56
2019-01-04T02:59:17.776Z,-0.58
2019-01-04T03:01:46.180Z,-0.57
2019-01-04T03:04:14.593Z,-0.57
2019-01-04T03:06:42.986Z,-0.57
2019-01-04T03:09:11.382Z,-0.58
2019-01-04T03:14:13.868Z,-0.61
2019-01-04T03:16:42.283Z,-0.61
2019-01-04T03:21:44.580Z,-0.56
2019-01-04T03:24:13.024Z,-0.55
2019-01-04T03:26:41.421Z,-0.57
2019-01-04T03:29:09.822Z,-0.57
2019-01-04T03:34:12.545Z,-0.57
2019-01-04T03:39:15.061Z,-0.58
2019-01-04T03:41:43.467Z,-0.59
2019-01-04T03:44:11.880Z,-0.62
2019-01-04T03:46:40.287Z,-0.61
2019-01-04T03:51:43.077Z,-0.61
2019-01-04T03:54:11.505Z,-0.62
2019-01-04T03:56:39.919Z,-0.60
2019-01-04T03:59:08.323Z,-0.59
2019-01-04T04:04:11.078Z,-0.58
2019-01-04T04:09:13.143Z,-0.60
2019-01-04T04:11:41.576Z,-0.61
2019-01-04T04:14:09.975Z,-0.61
2019-01-04T04:16:38.372Z,-0.61
2019-01-04T04:19:06.833Z,-0.57
2019-01-04T04:27:16.913Z,-0.54
2019-01-04T04:32:18.944Z,-0.55
2019-01-04T04:34:47.436Z,-0.58
2019-01-04T04:37:15.870Z,-0.56
2019-01-04T04:39:44.261Z,-0.54
2019-01-04T04:44:47.024Z,-0.54
2019-01-04T04:49:49.405Z,-0.51
2019-01-04T04:52:17.839Z,-0.52
2019-01-04T04:54:46.263Z,-0.53
2019-01-04T04:57:14.643Z,-0.51
2019-01-04T04:59:43.050Z,-0.51
2019-01-04T05:04:45.415Z,-0.54
2019-01-04T05:07:13.855Z,-0.52
2019-01-04T05:09:42.252Z,-0.50
2019-01-04T05:12:10.650Z,-0.50
2019-01-04T05:17:12.749Z,-0.45
2019-01-04T05:19:41.161Z,-0.43
2019-01-04T05:24:43.149Z,-0.42
2019-01-04T05:27:30.896Z,-0.42
2019-01-04T05:29:59.289Z,-0.41
2019-01-04T05:32:27.757Z,-0.40
2019-01-04T05:34:56.191Z,-0.40
2019-01-04T05:37:24.587Z,-0.42
2019-01-04T05:39:52.993Z,-0.40
2019-01-04T05:44:55.653Z,-0.39
2019-01-04T05:47:24.183Z,-0.40
2019-01-04T05:49:52.587Z,-0.42
2019-01-04T05:52:20.985Z,-0.42
2019-01-04T05:54:49.423Z,-0.40
2019-01-04T05:57:17.819Z,-0.42
2019-01-04T06:02:33.723Z,-0.41
2019-01-04T06:05:02.118Z,-0.42
2019-01-04T06:07:43.163Z,-0.44
2019-01-04T06:10:11.559Z,-0.44
2019-01-04T06:12:39.955Z,-0.43
2019-01-04T06:20:37.005Z,-0.48
2019-01-04T06:25:39.721Z,-0.46
2019-01-04T06:30:41.826Z,-0.46
2019-01-04T06:33:10.227Z,-0.46
2019-01-04T06:38:12.987Z,-0.43
2019-01-04T06:40:41.429Z,-0.42
2019-01-04T06:43:09.825Z,-0.42
2019-01-04T06:45:38.336Z,-0.42
2019-01-04T06:50:41.261Z,-0.40
2019-01-04T06:53:09.719Z,-0.38
2019-01-04T06:58:44.957Z,-0.42
2019-01-04T07:01:13.358Z,-0.42
2019-01-04T07:03:41.763Z,-0.42
2019-01-04T07:08:56.384Z,-0.41
2019-01-04T07:13:58.327Z,-0.41
2019-01-04T07:16:26.734Z,-0.40
2019-01-04T07:21:29.556Z,-0.36
2019-01-04T07:26:31.924Z,-0.36
2019-01-04T07:32:07.141Z,-0.37
2019-01-04T07:37:10.229Z,-0.36
2019-01-04T07:39:38.657Z,-0.36
2019-01-04T07:42:07.057Z,-0.36
2019-01-04T07:44:35.466Z,-0.35
2019-01-04T07:49:38.216Z,-0.28
2019-01-04T07:54:40.959Z,-0.21
2019-01-04T07:57:09.387Z,-0.16
2019-01-04T07:59:37.791Z,-0.14
2019-01-04T08:02:45.037Z,-0.11
2019-01-04T08:05:32.851Z,-0.12
2019-01-04T08:08:01.279Z,-0.20
2019-01-04T08:10:29.704Z,-0.17
2019-01-04T08:13:00.612Z,-0.14
2019-01-04T08:15:29.153Z,-0.12
2019-01-04T08:17:57.552Z,-0.09
2019-01-04T08:20:25.959Z,-0.11
2019-01-04T08:28:22.837Z,-0.09
2019-01-04T08:30:51.237Z,-0.06
2019-01-04T08:38:48.155Z,-0.05
2019-01-04T08:41:16.595Z,-0.03
2019-01-04T08:43:46.552Z,-0.03
2019-01-04T08:46:14.951Z,-0.04
2019-01-04T08:51:16.872Z,-0.04
2019-01-04T08:56:38.765Z,-0.05
2019-01-04T08:59:07.173Z,-0.02
2019-01-04T09:04:09.849Z,0.02
2019-01-04T09:06:38.273Z,0.04
2019-01-04T09:09:46.599Z,0.04
2019-01-04T09:14:50.217Z,0.05
2019-01-04T09:17:18.614Z,0.06
2019-01-04T09:19:47.018Z,0.05
2019-01-04T09:24:50.085Z,0.05
2019-01-04T09:27:18.516Z,0.02
2019-01-04T09:29:46.923Z,-0.02
2019-01-04T09:32:34.795Z,-0.04
2019-01-04T09:35:22.396Z,-0.02
2019-01-04T09:40:44.474Z,0.01
2019-01-04T09:43:12.882Z,0.03
2019-01-04T09:48:34.216Z,0.04
2019-01-04T09:53:36.678Z,0.09
2019-01-04T09:56:05.116Z,0.10
2019-01-04T09:58:33.522Z,0.12
2019-01-04T10:01:01.932Z,0.11
2019-01-04T10:03:30.352Z,0.11
2019-01-04T10:05:58.755Z,0.11
2019-01-04T10:08:27.162Z,0.10
2019-01-04T10:13:29.850Z,0.10
2019-01-04T10:18:31.846Z,0.17
2019-01-04T10:21:19.723Z,0.19
2019-01-04T10:23:48.201Z,0.15
2019-01-04T10:29:11.200Z,0.17
2019-01-04T10:31:39.779Z,0.15
2019-01-04T10:39:29.418Z,0.27
2019-01-04T10:44:31.751Z,0.29
2019-01-04T10:47:00.243Z,0.31
2019-01-04T10:52:02.753Z,0.37
2019-01-04T10:57:04.818Z,0.42
2019-01-04T10:59:33.210Z,0.50
2019-01-04T11:04:35.874Z,0.55
2019-01-04T11:07:04.266Z,0.56
2019-01-04T11:12:06.266Z,0.53
2019-01-04T11:14:47.716Z,0.51
2019-01-04T11:17:16.110Z,0.54
2019-01-04T11:19:44.498Z,0.52
2019-01-04T11:22:51.547Z,0.55
2019-01-04T11:25:59.872Z,0.53
2019-01-04T11:29:07.119Z,0.57
2019-01-04T11:32:14.115Z,0.65
2019-01-04T11:35:21.134Z,0.70
2019-01-04T11:38:29.448Z,0.72
2019-01-04T11:41:37.869Z,0.72
2019-01-04T11:44:44.852Z,0.75
2019-01-04T11:47:51.896Z,0.73
2019-01-04T11:51:00.275Z,0.69
2019-01-04T11:53:28.713Z,0.65
2019-01-04T11:55:57.111Z,0.68
2019-01-04T11:58:25.500Z,0.68
2019-01-04T12:00:53.924Z,0.67
2019-01-04T12:03:22.320Z,0.67
2019-01-04T12:05:50.735Z,0.73
2019-01-04T12:10:53.449Z,0.70
2019-01-04T12:13:41.150Z,0.76
2019-01-04T12:16:09.543Z,0.77
2019-01-04T12:18:37.940Z,0.85
2019-01-04T12:23:40.444Z,0.80
2019-01-04T12:28:42.779Z,0.81
2019-01-04T12:31:30.542Z,0.80
2019-01-04T12:33:58.945Z,0.78
2019-01-04T12:36:27.390Z,0.72
2019-01-04T12:41:30.101Z,0.66
2019-01-04T12:46:32.533Z,0.70
2019-01-04T12:51:34.913Z,0.72
2019-01-04T12:54:03.374Z,0.67
2019-01-04T12:56:31.772Z,0.61
2019-01-04T12:59:00.161Z,0.55
2019-01-04T13:01:28.628Z,0.52
2019-01-04T13:03:57.018Z,0.54
2019-01-04T13:06:25.404Z,0.56
2019-01-04T13:11:27.702Z,0.57
2019-01-04T13:13:56.089Z,0.57
2019-01-04T13:18:58.692Z,0.54
2019-01-04T13:21:27.112Z,0.55
2019-01-04T13:23:55.507Z,0.59
2019-01-04T13:26:23.906Z,0.63
2019-01-04T13:28:52.358Z,0.65
2019-01-04T13:31:20.749Z,0.64
2019-01-04T13:33:49.146Z,0.62
2019-01-04T13:36:36.771Z,0.63
2019-01-04T13:39:45.082Z,0.66
2019-01-04T13:44:48.061Z,0.62
2019-01-04T13:47:35.827Z,0.63
2019-01-04T13:55:46.704Z,0.66
2019-01-04T14:00:49.367Z,0.71
2019-01-04T14:03:24.564Z,0.67
2019-01-04T14:05:52.963Z,0.68
2019-01-04T14:08:21.351Z,0.66
2019-01-04T14:13:23.570Z,0.65
2019-01-04T14:15:51.965Z,0.67
2019-01-04T14:20:54.690Z,0.67
2019-01-04T14:25:57.049Z,0.66
2019-01-04T14:30:59.530Z,0.65
2019-01-04T14:36:21.375Z,0.64
2019-01-04T14:44:18.109Z,0.63
2019-01-04T14:46:46.576Z,0.58
2019-01-04T14:54:38.059Z,0.53
2019-01-04T14:57:06.502Z,0.52
2019-01-04T14:59:34.895Z,0.53
2019-01-04T15:02:03.292Z,0.55
2019-01-04T15:07:25.427Z,0.53
2019-01-04T15:12:28.233Z,0.49
2019-01-04T15:14:58.446Z,0.48
2019-01-04T15:17:26.849Z,0.52
2019-01-04T15:19:55.237Z,0.55
2019-01-04T15:24:57.267Z,0.55
2019-01-04T15:27:25.664Z,0.53
2019-01-04T15:29:54.246Z,0.51
2019-01-04T15:32:22.641Z,0.53
2019-01-04T15:34:51.046Z,0.53
2019-01-04T15:37:19.477Z,0.51
2019-01-04T15:39:47.878Z,0.53
2019-01-04T15:42:16.369Z,0.53
2019-01-04T15:47:19.467Z,0.51
2019-01-04T15:52:21.842Z,0.48
2019-01-04T15:54:50.232Z,0.49
2019-01-04T15:59:52.476Z,0.47
2019-01-04T16:04:54.889Z,0.43
2019-01-04T16:07:23.289Z,0.42
2019-01-04T16:09:51.751Z,0.42
2019-01-04T16:12:20.142Z,0.43
2019-01-04T16:14:48.543Z,0.43
2019-01-04T16:19:50.889Z,0.35
2019-01-04T16:22:19.323Z,0.31
2019-01-04T16:24:47.723Z,0.29
2019-01-04T16:27:16.189Z,0.28
2019-01-04T16:32:38.928Z,0.26
2019-01-04T16:37:41.697Z,0.25
2019-01-04T16:40:50.290Z,0.25
2019-01-04T16:43:18.685Z,0.26
2019-01-04T16:51:10.633Z,0.19
2019-01-04T16:56:12.535Z,0.21
2019-01-04T16:58:40.929Z,0.21
2019-01-04T17:03:43.260Z,0.21
2019-01-04T17:06:11.694Z,0.26
2019-01-04T17:08:40.157Z,0.27
2019-01-04T17:11:08.563Z,0.31
2019-01-04T17:13:37.019Z,0.33
2019-01-04T17:16:05.408Z,0.37
2019-01-04T17:18:33.818Z,0.37
2019-01-04T17:23:36.183Z,0.40
2019-01-04T17:26:23.922Z,0.41
2019-01-04T17:28:52.322Z,0.44
2019-01-04T17:31:35.339Z,0.47
2019-01-04T17:33:50.991Z,0.48
2019-01-04T17:36:19.383Z,0.50
2019-01-04T17:38:47.770Z,0.52
2019-01-04T17:41:16.201Z,0.54
2019-01-04T17:43:44.594Z,0.57
2019-01-04T17:46:13.006Z,0.57
2019-01-04T17:48:41.585Z,0.59
2019-01-04T17:51:09.989Z,0.59
2019-01-04T17:53:38.449Z,0.59
2019-01-04T17:56:06.862Z,0.58
2019-01-04T17:58:35.259Z,0.57
2019-01-04T18:01:23.022Z,0.59
2019-01-04T18:03:51.422Z,0.59
2019-01-04T18:06:19.816Z,0.60
2019-01-04T18:08:48.229Z,0.58
2019-01-04T18:11:16.621Z,0.53
2019-01-04T18:13:45.050Z,0.52
2019-01-04T18:16:13.481Z,0.48
2019-01-04T18:18:41.882Z,0.47
2019-01-04T18:21:10.275Z,0.44
2019-01-04T18:23:50.860Z,0.39
2019-01-04T18:26:24.318Z,0.34
2019-01-04T18:28:49.368Z,0.30
2019-01-04T18:33:51.656Z,0.28
2019-01-04T18:39:13.246Z,0.28
2019-01-04T18:41:41.687Z,0.27
2019-01-04T18:44:29.316Z,0.29
2019-01-04T18:49:31.354Z,0.29
2019-01-04T18:51:59.751Z,0.28
2019-01-04T18:57:02.466Z,0.30
2019-01-04T18:59:30.874Z,0.30
2019-01-04T19:04:37.141Z,0.31
2019-01-04T19:09:37.166Z,0.36
2019-01-04T19:12:24.923Z,0.39
2019-01-04T19:17:42.510Z,0.44
2019-01-04T19:20:10.995Z,0.44
2019-01-04T19:22:39.392Z,0.47
2019-01-04T19:25:47.987Z,0.50
2019-01-04T19:28:16.410Z,0.52
2019-01-04T19:30:44.799Z,0.56
2019-01-04T19:35:47.661Z,0.59
2019-01-04T19:40:49.915Z,0.64
2019-01-04T19:43:18.382Z,0.67
2019-01-04T19:45:46.788Z,0.69
2019-01-04T19:48:15.179Z,0.72
2019-01-04T19:53:17.202Z,0.76
2019-01-04T19:58:19.165Z,0.81
2019-01-04T20:00:47.551Z,0.82
2019-01-04T20:06:30.037Z,0.85
2019-01-04T20:09:56.408Z,0.84
2019-01-04T20:13:22.531Z,0.87
2019-01-04T20:19:26.891Z,0.92
2019-01-04T20:22:14.405Z,0.93
2019-01-04T20:25:01.955Z,0.97
2019-01-04T20:35:49.285Z,0.98
2019-01-04T20:38:36.815Z,0.99
2019-01-04T20:41:24.530Z,1.01
2019-01-04T20:44:12.047Z,1.04
2019-01-04T20:46:59.697Z,1.07
2019-01-04T20:49:47.219Z,1.08
2019-01-04T20:52:34.847Z,1.09
2019-01-04T20:55:22.378Z,1.10
2019-01-04T20:58:09.958Z,1.09
2019-01-04T21:00:57.490Z,1.11
2019-01-04T21:06:20.520Z,1.14
2019-01-04T21:09:08.043Z,1.15
2019-01-04T21:11:55.691Z,1.15
2019-01-04T21:14:55.549Z,1.15
2019-01-04T21:17:32.557Z,1.16
2019-01-04T21:20:20.078Z,1.18
2019-01-04T21:23:07.638Z,1.19
2019-01-04T21:28:44.297Z,1.23
2019-01-04T21:34:21.208Z,1.24
2019-01-04T21:39:57.926Z,1.22
2019-01-04T21:45:34.673Z,1.22
2019-01-04T21:51:11.446Z,1.18
2019-01-04T21:53:59.035Z,1.16
2019-01-04T21:56:46.586Z,1.14
2019-01-04T21:59:34.109Z,1.14
2019-01-04T22:02:21.742Z,1.13
2019-01-04T22:05:09.262Z,1.13
2019-01-04T22:07:57.054Z,1.13
2019-01-04T22:10:44.587Z,1.13
2019-01-04T22:13:32.230Z,1.12
2019-01-04T22:19:08.838Z,1.11
2019-01-04T22:21:56.363Z,1.09
2019-01-04T22:24:44.138Z,1.08
2019-01-04T22:27:31.657Z,1.06
2019-01-04T22:35:34.016Z,1.00
2019-01-04T22:38:21.540Z,0.96
2019-01-04T22:41:09.326Z,0.89
2019-01-04T22:43:56.849Z,0.85
2019-01-04T22:46:44.492Z,0.83
2019-01-04T22:49:32.008Z,0.83
2019-01-04T22:52:19.560Z,0.82
2019-01-04T22:55:07.098Z,0.82
2019-01-04T22:57:54.675Z,0.82
2019-01-04T23:01:01.611Z,0.82
2019-01-04T23:03:49.385Z,0.81
2019-01-04T23:06:36.908Z,0.79
2019-01-04T23:09:45.252Z,0.77
2019-01-04T23:15:22.027Z,0.74
2019-01-04T23:18:09.552Z,0.70
2019-01-04T23:23:32.488Z,0.66
2019-01-04T23:26:19.975Z,0.65
2019-01-04T23:29:07.607Z,0.63
2019-01-04T23:34:44.466Z,0.62
2019-01-04T23:37:31.988Z,0.58
2019-01-04T23:40:19.636Z,0.56
2019-01-04T23:43:07.165Z,0.52
2019-01-04T23:45:54.783Z,0.52
2019-01-04T23:48:42.466Z,0.52
2019-01-04T23:51:30.246Z,0.51
2019-01-04T23:57:06.873Z,0.54
